Time;durP1;ratioP1;P1;durP2;ratioP2;P2;SDS_P1;SDS_P2;PMS_P1;PMS_P2;Temp;Humidity;BMP_temperature;BMP_pressure;BME280_temperature;BME280_humidity;BME280_pressure;Samples;Min_cycle;Max_cycle;Signal;HPM_P1;HPM_P2
2022/04/13 00:00:12;;;;;;;8.15;3.40;;;;;;;15.34;53.83;99495.03;1088248;54;20018;-79
2022/04/13 00:01:16;;;;;;;7.47;3.55;;;;;;;15.30;54.23;99493.75;1088250;54;20015;-80
2022/04/13 00:02:18;;;;;;;8.93;3.50;;;;;;;15.24;54.21;99489.94;1088164;54;20022;-79
2022/04/13 00:03:22;;;;;;;7.05;3.67;;;;;;;15.26;54.09;99498.66;1090602;46;20115;-79
2022/04/13 00:04:23;;;;;;;7.82;3.75;;;;;;;15.27;54.15;99488.72;1088150;54;20694;-79
2022/04/13 00:05:28;;;;;;;7.45;3.22;;;;;;;15.27;54.28;99489.56;1088222;54;20035;-80
2022/04/13 00:06:29;;;;;;;8.68;3.67;;;;;;;15.14;54.43;99481.34;1088176;54;20038;-80
2022/04/13 00:07:33;;;;;;;7.20;3.17;;;;;;;15.16;54.40;99484.66;1088137;54;20643;-79
2022/04/13 00:08:35;;;;;;;8.43;4.03;;;;;;;15.11;54.68;99487.91;1088166;54;20078;-79
2022/04/13 00:09:42;;;;;;;7.57;3.95;;;;;;;15.03;54.94;99490.72;1088145;54;20034;-80
2022/04/13 00:10:44;;;;;;;8.10;4.05;;;;;;;14.96;54.59;99485.25;1088139;54;20031;-79
2022/04/13 00:11:50;;;;;;;7.50;4.05;;;;;;;14.91;54.97;99482.28;1089478;46;20014;-80
2022/04/13 00:12:51;;;;;;;7.82;4.57;;;;;;;14.90;54.58;99493.25;1088057;54;20045;-80
2022/04/13 00:13:56;;;;;;;8.70;4.43;;;;;;;14.89;54.51;99494.25;1087909;54;21134;-79
2022/04/13 00:14:57;;;;;;;9.07;4.00;;;;;;;14.89;54.74;99491.56;1087699;54;20091;-80
2022/04/13 00:16:01;;;;;;;7.40;3.67;;;;;;;14.89;54.58;99491.56;1088115;54;20018;-79
2022/04/13 00:17:04;;;;;;;6.45;3.47;;;;;;;14.94;54.27;99494.53;1089981;47;20034;-80
2022/04/13 00:18:08;;;;;;;5.90;3.35;;;;;;;14.96;54.15;99492.47;1088084;54;20088;-80
2022/04/13 00:19:10;;;;;;;9.13;3.53;;;;;;;14.85;54.50;99490.25;1093169;39;20652;-80
2022/04/13 00:20:15;;;;;;;11.52;3.90;;;;;;;14.93;54.29;99482.94;1088147;54;20034;-80
2022/04/13 00:28:44;;;;;;;8.05;3.03;;;;;;;14.87;53.97;99498.97;1087113;54;20082;-80
2022/04/13 00:29:45;;;;;;;9.20;3.75;;;;;;;14.87;54.23;99502.53;1089079;39;20534;-80
2022/04/13 00:30:50;;;;;;;6.07;3.35;;;;;;;14.89;54.33;99496.94;1087076;54;20126;-80
2022/04/13 00:31:52;;;;;;;6.75;2.97;;;;;;;14.80;54.20;99498.88;1087113;54;20046;-79
2022/04/13 00:32:56;;;;;;;8.27;3.30;;;;;;;14.83;54.55;99503.91;1087131;54;20033;-80
2022/04/13 00:33:57;;;;;;;8.73;3.20;;;;;;;14.76;54.89;99506.50;1087469;39;20432;-78
2022/04/13 00:35:04;;;;;;;7.53;3.50;;;;;;;14.77;54.87;99499.28;1087532;47;20042;-79
2022/04/13 00:36:06;;;;;;;8.18;3.88;;;;;;;14.72;54.95;99502.53;1087477;54;20038;-79
2022/04/13 00:37:11;;;;;;;6.45;3.35;;;;;;;14.71;55.10;99500.84;1087701;54;20031;-79
2022/04/13 00:38:12;;;;;;;7.50;3.38;;;;;;;14.72;54.72;99494.47;1087863;54;20042;-80
2022/04/13 00:39:16;;;;;;;6.00;3.17;;;;;;;14.73;54.88;99496.13;1088110;54;20126;-80
2022/04/13 00:40:18;;;;;;;7.00;3.28;;;;;;;14.71;54.84;99508.06;1088207;54;20034;-80
2022/04/13 00:41:22;;;;;;;6.70;3.40;;;;;;;14.65;55.13;99501.53;1087756;54;20536;-79
2022/04/13 00:42:24;;;;;;;5.85;3.13;;;;;;;14.69;55.12;99508.25;1087634;54;20038;-79
2022/04/13 00:43:28;;;;;;;8.13;3.50;;;;;;;14.72;54.77;99507.91;1087783;54;20034;-80
2022/04/13 00:44:34;;;;;;;6.07;3.25;;;;;;;14.67;55.22;99507.59;1087636;54;20061;-80
2022/04/13 00:45:38;;;;;;;7.57;3.35;;;;;;;14.68;54.94;99514.66;1087730;54;20062;-79
2022/04/13 00:46:39;;;;;;;6.70;3.88;;;;;;;14.63;55.35;99507.13;1087637;54;20042;-79
2022/04/13 00:47:44;;;;;;;8.25;3.05;;;;;;;14.65;55.07;99504.22;1087540;54;20035;-79
2022/04/13 00:48:45;;;;;;;5.95;3.20;;;;;;;14.65;55.10;99504.22;1087777;54;20027;-79
2022/04/13 00:49:50;;;;;;;5.75;3.25;;;;;;;14.64;55.43;99508.78;1087560;54;20567;-80
2022/04/13 00:50:51;;;;;;;6.82;3.50;;;;;;;14.68;55.02;99509.28;1088283;39;20385;-78
2022/04/13 00:51:56;;;;;;;7.40;3.30;;;;;;;14.66;55.22;99509.47;1087116;54;20638;-80
2022/04/13 00:53:02;;;;;;;6.35;3.08;;;;;;;14.66;54.97;99511.28;1087467;54;20042;-80
2022/04/13 00:54:04;;;;;;;6.43;2.90;;;;;;;14.70;55.02;99503.72;1087859;54;20046;-80
2022/04/13 00:55:10;;;;;;;7.47;3.85;;;;;;;14.57;55.21;99507.00;1088076;54;20027;-79
2022/04/13 00:56:21;;;;;;;5.88;3.22;;;;;;;14.59;55.28;99515.75;1088138;54;20030;-79
2022/04/13 00:57:24;;;;;;;6.47;3.53;;;;;;;14.53;55.14;99521.88;1088022;54;20040;-79
2022/04/13 00:58:30;;;;;;;6.55;3.40;;;;;;;14.55;55.46;99517.16;1088582;46;20117;-78
2022/04/13 00:59:38;;;;;;;6.15;3.35;;;;;;;14.46;55.73;99530.63;1088084;54;20053;-79
2022/04/13 01:00:48;;;;;;;7.72;3.95;;;;;;;14.46;55.47;99527.94;1087975;54;20032;-80
2022/04/13 01:01:51;;;;;;;4.97;2.97;;;;;;;14.53;55.40;99536.13;1087891;54;20037;-79
2022/04/13 01:02:56;;;;;;;5.03;2.90;;;;;;;14.51;55.20;99528.25;1087949;54;20053;-79
2022/04/13 01:04:00;;;;;;;5.85;3.60;;;;;;;14.46;55.47;99527.94;1087948;54;20712;-79
2022/04/13 01:05:07;;;;;;;5.10;3.50;;;;;;;14.45;55.58;99518.22;1087913;47;20034;-78
2022/04/13 01:06:09;;;;;;;4.47;2.75;;;;;;;14.46;55.66;99525.25;1087941;54;20030;-79
2022/04/13 01:07:14;;;;;;;6.07;3.28;;;;;;;14.46;55.46;99524.44;1087820;54;20041;-79
2022/04/13 01:08:17;;;;;;;6.03;3.28;;;;;;;14.48;55.56;99522.41;1087537;54;20035;-79
2022/04/13 01:09:23;;;;;;;6.00;3.63;;;;;;;14.41;55.46;99526.81;1087616;54;20034;-79
2022/04/13 01:10:29;;;;;;;6.03;3.17;;;;;;;14.37;55.85;99520.16;1087811;54;20047;-79
2022/04/13 01:11:33;;;;;;;6.70;3.55;;;;;;;14.34;55.63;99527.56;1087838;54;20058;-80
2022/04/13 01:12:36;;;;;;;6.43;3.85;;;;;;;14.34;55.76;99521.38;1087836;47;20034;-80
2022/04/13 01:13:40;;;;;;;7.18;4.07;;;;;;;14.30;55.70;99528.97;1087807;54;20054;-79
2022/04/13 01:14:44;;;;;;;5.93;3.55;;;;;;;14.31;55.96;99527.09;1087815;54;20030;-78
2022/04/13 01:15:48;;;;;;;5.43;3.13;;;;;;;14.33;55.68;99525.88;1087810;54;20027;-79
2022/04/13 01:16:50;;;;;;;5.75;3.40;;;;;;;14.32;55.75;99528.78;1087750;54;20049;-79
2022/04/13 01:17:54;;;;;;;6.97;3.90;;;;;;;14.23;55.81;99530.69;1087842;54;20030;-79
2022/04/13 01:18:56;;;;;;;6.20;3.40;;;;;;;14.24;55.77;99529.66;1088570;47;20014;-79
2022/04/13 01:20:05;;;;;;;5.90;3.30;;;;;;;14.27;55.74;99529.31;1090031;47;20066;-79
2022/04/13 01:21:12;;;;;;;5.03;3.30;;;;;;;14.31;55.56;99530.59;1087622;39;20647;-80
2022/04/13 01:22:19;;;;;;;6.32;3.60;;;;;;;14.31;55.64;99529.78;1087634;54;20025;-80
2022/04/13 01:23:24;;;;;;;5.47;3.10;;;;;;;14.36;55.51;99543.50;1087699;54;20037;-80
2022/04/13 01:24:26;;;;;;;5.78;3.30;;;;;;;14.37;55.47;99539.81;1087824;54;20031;-79
2022/04/13 01:25:30;;;;;;;5.63;3.55;;;;;;;14.21;55.70;99538.13;1087671;54;20090;-81
2022/04/13 01:26:32;;;;;;;7.40;4.03;;;;;;;14.15;55.59;99530.75;1087571;54;20042;-80
2022/04/13 01:27:36;;;;;;;6.55;3.67;;;;;;;14.13;55.52;99536.31;1087606;54;20041;-80
2022/04/13 01:28:37;;;;;;;6.07;3.88;;;;;;;14.09;55.97;99535.00;1087363;46;20057;-79
2022/04/13 01:29:43;;;;;;;7.00;3.70;;;;;;;14.12;55.58;99540.03;1087646;54;20030;-80
2022/04/13 01:30:45;;;;;;;9.30;4.10;;;;;;;14.09;55.69;99539.56;1087772;54;20037;-79
2022/04/13 01:31:51;;;;;;;5.70;3.65;;;;;;;14.11;55.62;99538.34;1088034;54;20011;-79
2022/04/13 01:32:53;;;;;;;7.40;3.67;;;;;;;14.09;55.60;99535.00;1088193;54;20555;-79
2022/04/13 01:33:59;;;;;;;9.52;3.42;;;;;;;14.12;55.49;99534.66;1088546;39;20496;-78
2022/04/13 01:35:03;;;;;;;6.13;3.55;;;;;;;14.12;55.63;99541.88;1088097;54;20026;-79
2022/04/13 01:36:07;;;;;;;5.88;3.45;;;;;;;14.12;55.45;99536.50;1087996;54;20046;-79
2022/04/13 01:37:11;;;;;;;6.55;3.80;;;;;;;14.10;55.88;99534.00;1088152;54;20015;-78
2022/04/13 01:38:19;;;;;;;7.57;3.88;;;;;;;14.04;56.03;99532.84;1087950;54;20033;-79
2022/04/13 01:39:20;;;;;;;6.80;3.85;;;;;;;14.07;55.63;99537.06;1087748;54;20030;-78
2022/04/13 01:40:25;;;;;;;6.88;4.10;;;;;;;14.09;55.90;99542.25;1091738;39;20385;-79
2022/04/13 01:41:26;;;;;;;5.40;3.33;;;;;;;14.14;55.78;99539.84;1087785;54;20034;-79
2022/04/13 01:42:31;;;;;;;6.13;3.70;;;;;;;14.12;55.67;99537.34;1087734;54;20031;-79
2022/04/13 01:43:32;;;;;;;7.97;3.65;;;;;;;14.09;55.89;99540.38;1087811;54;20039;-80
2022/04/13 01:44:37;;;;;;;6.72;3.63;;;;;;;14.09;55.96;99539.56;1088121;54;20034;-79
2022/04/13 01:45:38;;;;;;;5.50;3.35;;;;;;;14.11;55.82;99527.59;1088304;54;20048;-78
2022/04/13 01:46:42;;;;;;;4.97;3.10;;;;;;;14.15;55.78;99539.66;1089309;46;20722;-79
2022/04/13 01:47:44;;;;;;;6.35;3.17;;;;;;;14.16;55.49;99537.81;1088271;54;20038;-79
2022/04/13 01:48:48;;;;;;;4.70;2.90;;;;;;;14.18;55.31;99538.47;1088603;46;20031;-80
2022/04/13 01:49:49;;;;;;;5.60;3.20;;;;;;;14.22;55.50;99538.94;1088347;54;20026;-80
2022/04/13 01:50:54;;;;;;;5.80;3.08;;;;;;;14.20;55.42;99537.25;1088428;54;20025;-79
2022/04/13 01:51:55;;;;;;;6.60;3.10;;;;;;;14.20;55.41;99545.31;1090406;39;20467;-79
2022/04/13 01:52:59;;;;;;;6.88;3.38;;;;;;;14.18;55.50;99546.53;1090209;46;20042;-79
2022/04/13 01:54:04;;;;;;;8.52;3.50;;;;;;;14.11;55.73;99557.16;1087637;54;20046;-79
2022/04/13 01:55:09;;;;;;;7.30;3.70;;;;;;;14.07;55.82;99558.56;1088215;54;20050;-80
2022/04/13 01:56:10;;;;;;;6.38;3.53;;;;;;;14.07;55.88;99558.56;1088154;54;20042;-78
2022/04/13 01:57:14;;;;;;;6.97;4.00;;;;;;;14.10;55.98;99551.97;1088590;39;20683;-80
2022/04/13 01:58:16;;;;;;;6.05;3.40;;;;;;;14.11;55.71;99543.72;1088281;54;20795;-79
2022/04/13 01:59:20;;;;;;;5.68;3.35;;;;;;;14.14;55.70;99546.06;1088303;54;20074;-79
2022/04/13 02:00:24;;;;;;;7.35;3.55;;;;;;;14.12;55.91;99550.78;1088845;46;20015;-81
2022/04/13 02:01:27;;;;;;;6.05;3.50;;;;;;;14.13;55.71;99551.59;1087890;54;20030;-79
2022/04/13 02:02:31;;;;;;;6.97;3.28;;;;;;;14.16;55.69;99552.09;1087798;54;20033;-79
2022/04/13 02:03:33;;;;;;;7.40;3.75;;;;;;;14.04;56.00;99551.66;1087879;54;20030;-79
2022/04/13 02:04:37;;;;;;;7.10;3.92;;;;;;;13.97;56.24;99555.28;1087873;54;20106;-79
2022/04/13 02:05:39;;;;;;;7.22;3.67;;;;;;;13.99;56.34;99567.50;1087895;54;20709;-80
2022/04/13 02:06:43;;;;;;;7.15;3.78;;;;;;;13.98;56.35;99565.00;1088076;54;20039;-79
2022/04/13 02:07:48;;;;;;;6.38;3.65;;;;;;;13.87;56.81;99564.41;1087766;54;20035;-79
2022/04/13 02:08:50;;;;;;;8.05;4.53;;;;;;;13.85;56.88;99566.41;1087785;54;20042;-80
2022/04/13 02:09:58;;;;;;;8.13;4.07;;;;;;;13.77;57.70;99563.78;1087575;54;20087;-79
2022/04/13 02:10:59;;;;;;;7.32;4.03;;;;;;;13.68;57.60;99571.06;1087342;54;20065;-80
2022/04/13 02:12:04;;;;;;;6.60;3.83;;;;;;;13.57;58.01;99568.75;1087323;54;20907;-80
2022/04/13 02:13:05;;;;;;;7.60;4.00;;;;;;;13.50;58.51;99574.00;1087552;54;20034;-79
2022/04/13 02:14:10;;;;;;;9.30;4.15;;;;;;;13.39;58.84;99572.53;1087274;54;20600;-80
2022/04/13 02:15:11;;;;;;;10.77;4.57;;;;;;;13.32;59.15;99573.41;1087256;54;20618;-79
2022/04/13 02:16:15;;;;;;;8.15;4.35;;;;;;;13.24;59.51;99577.75;1088038;54;20611;-80
2022/04/13 02:17:19;;;;;;;7.80;4.05;;;;;;;13.19;59.54;99577.47;1087699;54;20039;-80
2022/04/13 02:18:24;;;;;;;10.43;4.78;;;;;;;13.20;59.83;99579.13;1087631;54;20034;-79
2022/04/13 02:19:26;;;;;;;7.50;4.38;;;;;;;13.25;59.80;99578.63;1087911;54;20039;-80
2022/04/13 02:20:30;;;;;;;8.10;3.80;;;;;;;13.31;59.68;99575.22;1094115;39;20487;-79
2022/04/13 02:21:31;;;;;;;7.32;4.25;;;;;;;13.44;59.09;99580.06;1087824;54;20046;-79
2022/04/13 02:22:35;;;;;;;7.82;3.80;;;;;;;13.49;58.85;99582.22;1088149;54;20050;-80
2022/04/13 02:23:37;;;;;;;6.90;3.45;;;;;;;13.44;59.15;99580.06;1088111;54;20035;-80
2022/04/13 02:24:41;;;;;;;6.65;3.88;;;;;;;13.33;59.46;99585.78;1088092;54;20010;-79
2022/04/13 02:25:45;;;;;;;7.88;4.35;;;;;;;13.27;59.90;99579.28;1088061;54;20069;-80
2022/04/13 02:26:49;;;;;;;10.15;4.30;;;;;;;13.31;59.44;99582.47;1088049;54;20035;-79
2022/04/13 02:27:51;;;;;;;7.57;3.83;;;;;;;13.26;59.81;99580.28;1088320;54;20034;-80
2022/04/13 02:28:55;;;;;;;8.15;4.28;;;;;;;13.14;60.48;99585.19;1088335;54;20033;-79
2022/04/13 02:29:57;;;;;;;7.47;4.65;;;;;;;12.99;60.94;99586.91;1088426;54;20065;-80
2022/04/13 02:31:01;;;;;;;10.40;4.50;;;;;;;12.88;61.54;99596.16;1088456;54;20018;-79
2022/04/13 02:32:04;;;;;;;9.93;4.68;;;;;;;12.78;61.84;99588.28;1088302;54;20018;-80
2022/04/13 02:33:08;;;;;;;10.90;5.03;;;;;;;12.77;62.13;99591.97;1088197;54;20594;-80
2022/04/13 02:34:09;;;;;;;8.57;4.05;;;;;;;12.67;62.65;99594.00;1088395;54;20049;-79
2022/04/13 02:35:15;;;;;;;8.55;4.18;;;;;;;12.68;62.41;99593.00;1088126;54;20745;-79
2022/04/13 02:36:17;;;;;;;9.00;4.75;;;;;;;12.67;62.41;99594.84;1088442;54;20030;-80
2022/04/13 02:37:21;;;;;;;10.85;4.78;;;;;;;12.66;62.34;99592.34;1089589;46;20030;-79
2022/04/13 02:38:23;;;;;;;8.70;4.63;;;;;;;12.71;62.10;99589.97;1088008;54;20043;-80
2022/04/13 02:39:27;;;;;;;8.90;4.30;;;;;;;12.78;61.87;99590.97;1088422;54;20046;-82
2022/04/13 02:40:29;;;;;;;8.27;3.90;;;;;;;12.90;61.29;99592.31;1088448;54;20045;-80
2022/04/13 02:41:38;;;;;;;6.22;3.70;;;;;;;13.00;61.28;99588.59;1088449;54;20034;-81
2022/04/13 02:42:40;;;;;;;6.00;3.38;;;;;;;13.05;60.93;99586.22;1089917;39;20487;-79
2022/04/13 02:43:44;;;;;;;7.22;3.45;;;;;;;13.08;60.65;99588.56;1089189;46;20154;-80
2022/04/13 02:44:46;;;;;;;6.38;3.28;;;;;;;13.09;60.77;99591.06;1088040;54;20587;-79
2022/04/13 02:45:50;;;;;;;6.72;3.83;;;;;;;13.07;60.94;99590.41;1088169;54;20045;-79
2022/04/13 02:46:52;;;;;;;6.97;3.50;;;;;;;13.10;60.72;99573.13;1088228;54;20042;-80
2022/04/13 02:47:56;;;;;;;6.32;3.28;;;;;;;13.13;60.49;99585.38;1088147;54;20082;-80
2022/04/13 02:48:57;;;;;;;6.65;3.22;;;;;;;13.16;60.75;99577.78;1088171;54;20045;-80
2022/04/13 02:50:02;;;;;;;5.70;3.08;;;;;;;13.19;60.62;99577.47;1087811;54;20653;-80
2022/04/13 02:51:05;;;;;;;6.63;3.53;;;;;;;13.15;60.84;99573.44;1088247;54;20034;-80
2022/04/13 02:52:10;;;;;;;8.02;3.90;;;;;;;13.07;61.20;99578.84;1088289;54;20053;-80
2022/04/13 02:53:12;;;;;;;7.03;4.07;;;;;;;13.09;60.86;99577.66;1087999;54;20038;-81
2022/04/13 02:54:16;;;;;;;8.30;3.63;;;;;;;13.07;60.91;99576.16;1087892;54;20019;-80
2022/04/13 02:55:18;;;;;;;7.03;3.75;;;;;;;13.04;61.27;99592.59;1087950;54;20789;-80
2022/04/13 02:56:23;;;;;;;6.82;3.90;;;;;;;13.02;61.28;99579.34;1088409;54;20041;-80
2022/04/13 02:57:27;;;;;;;6.63;4.22;;;;;;;12.94;61.59;99580.19;1088308;54;20061;-79
2022/04/13 02:58:31;;;;;;;7.30;3.95;;;;;;;12.89;61.77;99576.38;1088411;54;20034;-80
2022/04/13 02:59:33;;;;;;;6.68;4.00;;;;;;;12.84;61.76;99579.59;1088293;54;20030;-79
2022/04/13 03:00:37;;;;;;;7.18;3.70;;;;;;;12.82;61.92;99584.28;1088266;54;20041;-80
2022/04/13 03:01:39;;;;;;;7.43;3.83;;;;;;;12.86;61.82;99590.94;1088141;54;20031;-79
2022/04/13 03:02:44;;;;;;;9.13;3.72;;;;;;;12.84;61.76;99590.31;1088221;54;20030;-79
2022/04/13 03:03:46;;;;;;;7.57;3.63;;;;;;;12.84;61.86;99594.81;1088242;54;20042;-79
2022/04/13 03:04:50;;;;;;;7.20;3.22;;;;;;;12.84;61.72;99590.31;1088092;54;20015;-79
2022/04/13 03:05:52;;;;;;;5.28;3.50;;;;;;;12.77;62.11;99584.78;1088025;54;20034;-80
2022/04/13 03:06:56;;;;;;;7.13;4.05;;;;;;;12.77;61.97;99589.28;1088250;54;20034;-79
2022/04/13 03:07:58;;;;;;;7.47;3.40;;;;;;;12.75;62.13;99591.34;1088267;54;20042;-79
2022/04/13 03:09:03;;;;;;;7.22;3.25;;;;;;;12.75;62.24;99584.13;1088246;54;20026;-80
2022/04/13 03:10:05;;;;;;;7.00;3.25;;;;;;;12.74;61.98;99585.13;1088230;54;20037;-79
2022/04/13 03:11:10;;;;;;;8.48;3.00;;;;;;;12.80;62.05;99588.97;1090161;46;20034;-80
2022/04/13 03:12:12;;;;;;;5.10;2.85;;;;;;;12.77;62.09;99594.66;1087950;54;20061;-79
2022/04/13 03:13:19;;;;;;;6.22;3.17;;;;;;;12.76;62.18;99592.97;1088229;54;20033;-80
2022/04/13 03:14:23;;;;;;;7.13;3.53;;;;;;;12.73;62.22;99596.03;1088289;54;20107;-79
2022/04/13 03:15:27;;;;;;;7.43;3.58;;;;;;;12.78;61.91;99597.19;1088263;54;20034;-80
2022/04/13 03:16:28;;;;;;;6.43;3.28;;;;;;;12.82;61.75;99591.47;1088205;54;20038;-79
2022/04/13 03:17:32;;;;;;;5.88;3.60;;;;;;;12.77;62.19;99590.16;1088438;46;20718;-79
2022/04/13 03:18:39;;;;;;;7.05;3.78;;;;;;;12.76;62.60;99593.84;1088295;54;20026;-81
2022/04/13 03:19:43;;;;;;;8.38;3.90;;;;;;;12.73;62.24;99591.47;1088473;54;20045;-80
2022/04/13 03:20:51;;;;;;;7.38;3.70;;;;;;;12.75;62.48;99596.69;1088337;54;20035;-79
2022/04/13 03:21:54;;;;;;;7.35;3.90;;;;;;;12.74;62.15;99600.38;1088421;54;20041;-80
2022/04/13 03:22:58;;;;;;;6.50;3.28;;;;;;;12.76;62.28;99598.34;1088434;54;20011;-81
2022/04/13 03:24:00;;;;;;;6.95;3.33;;;;;;;12.80;61.81;99594.31;1088978;46;20017;-81
2022/04/13 03:25:06;;;;;;;7.57;3.50;;;;;;;12.81;62.07;99598.69;1088473;54;20090;-81
2022/04/13 03:26:08;;;;;;;4.88;3.15;;;;;;;12.77;62.19;99600.88;1088408;54;20022;-80
2022/04/13 03:27:12;;;;;;;5.55;3.20;;;;;;;12.79;61.97;99596.19;1088419;54;20030;-80
2022/04/13 03:28:16;;;;;;;6.70;3.40;;;;;;;12.77;62.03;99594.66;1088191;54;20045;-80
2022/04/13 03:29:20;;;;;;;5.50;3.15;;;;;;;12.78;62.21;99594.50;1087933;54;20021;-80
2022/04/13 03:30:25;;;;;;;6.93;3.88;;;;;;;12.74;62.29;99586.97;1089396;46;20018;-80
2022/04/13 03:31:27;;;;;;;7.07;3.35;;;;;;;12.76;61.99;99593.84;1091223;46;20035;-80
2022/04/13 03:32:38;;;;;;;6.93;3.83;;;;;;;12.70;62.57;99597.22;1093546;39;20491;-81
2022/04/13 03:33:39;;;;;;;6.30;3.55;;;;;;;12.68;62.36;99595.69;1088344;54;20686;-80
2022/04/13 03:34:44;;;;;;;5.75;3.25;;;;;;;12.73;62.14;99598.72;1088734;46;20037;-79
2022/04/13 03:35:45;;;;;;;7.70;3.47;;;;;;;12.70;62.10;99591.84;1088326;54;20576;-80
2022/04/13 03:36:52;;;;;;;8.85;3.80;;;;;;;12.74;62.19;99585.13;1088306;54;20026;-80
2022/04/13 03:37:53;;;;;;;8.45;4.15;;;;;;;12.71;62.15;99590.81;1088358;54;20061;-81
2022/04/13 03:38:58;;;;;;;8.80;3.85;;;;;;;12.75;61.96;99585.97;1088337;54;20045;-79
2022/04/13 03:39:59;;;;;;;6.88;3.65;;;;;;;12.76;62.00;99591.16;1094482;39;20476;-79
2022/04/13 03:41:05;;;;;;;6.60;3.20;;;;;;;12.78;61.71;99590.97;1088400;54;20034;-80
2022/04/13 03:42:07;;;;;;;6.13;3.50;;;;;;;12.76;61.93;99588.47;1088248;54;20019;-80
2022/04/13 03:43:11;;;;;;;5.95;3.22;;;;;;;12.78;61.97;99589.16;1088316;54;20078;-80
2022/04/13 03:44:16;;;;;;;6.07;3.22;;;;;;;12.79;61.89;99592.66;1088262;54;20042;-80
2022/04/13 03:45:20;;;;;;;5.70;3.33;;;;;;;12.79;61.67;99592.66;1087849;54;20034;-80
2022/04/13 03:46:21;;;;;;;6.68;3.53;;;;;;;12.74;61.88;99590.47;1088325;54;20041;-79
2022/04/13 03:47:25;;;;;;;6.90;3.40;;;;;;;12.74;61.79;99589.66;1088265;54;20025;-80
2022/04/13 03:48:27;;;;;;;6.68;3.72;;;;;;;12.74;61.86;99586.97;1088278;54;20026;-79
2022/04/13 03:49:31;;;;;;;5.60;2.90;;;;;;;12.75;61.69;99592.16;1088271;54;20034;-79
2022/04/13 03:50:33;;;;;;;5.85;3.40;;;;;;;12.78;61.66;99593.66;1088269;54;20029;-79
2022/04/13 03:51:37;;;;;;;5.57;3.20;;;;;;;12.78;61.46;99585.59;1088298;54;20025;-80
2022/04/13 03:52:41;;;;;;;6.72;3.45;;;;;;;12.76;61.56;99592.97;1088145;54;20026;-80
2022/04/13 03:53:43;;;;;;;5.95;3.33;;;;;;;12.73;61.55;99593.34;1088274;54;20034;-79
2022/04/13 03:54:47;;;;;;;6.25;3.85;;;;;;;12.70;61.80;99594.53;1088337;54;20548;-80
2022/04/13 03:55:49;;;;;;;6.18;3.67;;;;;;;12.72;61.38;99597.03;1088265;54;20575;-80
2022/04/13 03:56:53;;;;;;;7.05;3.58;;;;;;;12.68;61.95;99587.63;1088270;54;20033;-81
2022/04/13 03:57:55;;;;;;;7.57;3.70;;;;;;;12.64;61.81;99593.34;1089250;46;20018;-81
2022/04/13 03:58:59;;;;;;;9.13;3.72;;;;;;;12.65;62.03;99591.50;1092775;39;20520;-80
2022/04/13 04:00:08;;;;;;;7.22;3.50;;;;;;;12.63;62.04;99589.00;1088309;54;20042;-80
2022/04/13 04:01:11;;;;;;;5.20;3.05;;;;;;;12.64;62.15;99600.53;1089671;39;20682;-80
2022/04/13 04:02:15;;;;;;;8.15;3.80;;;;;;;12.53;62.21;99596.38;1088098;54;20646;-81
2022/04/13 04:03:20;;;;;;;6.47;2.95;;;;;;;12.52;62.59;99599.22;1089754;39;20670;-79
2022/04/13 04:04:21;;;;;;;8.05;3.50;;;;;;;12.54;62.58;99592.69;1088308;54;20018;-80
2022/04/13 04:05:25;;;;;;;7.25;3.53;;;;;;;12.55;62.57;99597.06;1088295;54;20042;-79
2022/04/13 04:06:27;;;;;;;8.52;3.95;;;;;;;12.54;62.63;99599.88;1088261;54;20041;-80
2022/04/13 04:07:31;;;;;;;6.88;3.28;;;;;;;12.50;62.74;99596.69;1088117;54;20041;-79
2022/04/13 04:08:33;;;;;;;5.97;3.60;;;;;;;12.48;62.62;99598.72;1088195;54;20039;-79
2022/04/13 04:09:38;;;;;;;7.80;3.33;;;;;;;12.48;62.83;99596.03;1088245;54;20018;-80
2022/04/13 04:10:42;;;;;;;7.18;3.63;;;;;;;12.39;62.94;99602.41;1088259;54;20034;-80
2022/04/13 04:11:43;;;;;;;9.05;3.58;;;;;;;12.42;62.82;99610.13;1092894;39;20569;-79
2022/04/13 04:12:47;;;;;;;10.88;4.25;;;;;;;12.43;63.02;99603.75;1088161;54;20034;-79
2022/04/13 04:13:50;;;;;;;8.18;3.70;;;;;;;12.43;63.08;99606.44;1088190;54;20548;-79
2022/04/13 04:14:54;;;;;;;6.35;3.80;;;;;;;12.45;62.93;99601.75;1088218;54;20018;-80
2022/04/13 04:16:01;;;;;;;8.77;3.78;;;;;;;12.44;63.13;99602.75;1088155;54;20046;-79
2022/04/13 04:17:03;;;;;;;7.65;3.80;;;;;;;12.38;63.30;99608.75;1088109;54;20046;-80
2022/04/13 04:18:08;;;;;;;6.15;3.63;;;;;;;12.38;63.10;99603.41;1087941;54;20030;-80
2022/04/13 04:19:10;;;;;;;8.77;4.40;;;;;;;12.33;63.15;99622.66;1088212;54;20066;-81
2022/04/13 04:20:16;;;;;;;6.82;3.60;;;;;;;12.33;63.38;99610.13;1088264;54;20061;-79
2022/04/13 04:21:17;;;;;;;6.28;3.38;;;;;;;12.31;63.32;99617.47;1089171;47;20038;-79
2022/04/13 04:22:25;;;;;;;7.82;3.53;;;;;;;12.29;63.10;99605.25;1088192;54;20037;-81
2022/04/13 04:23:29;;;;;;;5.50;3.22;;;;;;;12.28;63.44;99612.44;1088321;54;20018;-80
2022/04/13 04:24:31;;;;;;;5.97;3.65;;;;;;;12.29;63.22;99613.28;1088310;54;20026;-81
2022/04/13 04:25:35;;;;;;;5.70;3.08;;;;;;;12.26;62.86;99613.63;1088176;54;20042;-80
2022/04/13 04:26:36;;;;;;;6.13;3.30;;;;;;;12.25;63.22;99618.16;1088369;54;20027;-80
2022/04/13 04:27:40;;;;;;;9.30;3.67;;;;;;;12.23;63.20;99617.47;1088145;54;20027;-81
2022/04/13 04:28:43;;;;;;;7.80;3.67;;;;;;;12.23;63.27;99613.97;1088204;54;20244;-80
2022/04/13 04:29:47;;;;;;;7.20;3.70;;;;;;;12.24;62.96;99627.19;1096113;39;20483;-79
2022/04/13 04:30:51;;;;;;;8.52;3.88;;;;;;;12.25;63.10;99622.66;1088280;54;20031;-79
2022/04/13 04:31:59;;;;;;;8.25;3.88;;;;;;;12.25;62.99;99620.84;1088265;54;20042;-80
2022/04/13 04:33:03;;;;;;;7.18;3.53;;;;;;;12.24;62.92;99616.47;1088192;54;20030;-81
2022/04/13 04:34:05;;;;;;;5.90;3.05;;;;;;;12.25;63.00;99612.78;1088107;54;20039;-80
2022/04/13 04:35:10;;;;;;;8.20;3.75;;;;;;;12.23;63.20;99625.50;1088003;54;20058;-79
2022/04/13 04:36:12;;;;;;;8.63;3.80;;;;;;;12.23;62.97;99624.69;1088238;54;20015;-80
2022/04/13 04:37:16;;;;;;;6.28;3.40;;;;;;;12.24;63.15;99619.16;1088176;54;20591;-80
2022/04/13 04:38:18;;;;;;;6.65;3.67;;;;;;;12.24;62.92;99620.97;1088252;54;20023;-80
2022/04/13 04:39:22;;;;;;;6.05;3.28;;;;;;;12.25;62.98;99617.28;1088300;54;20034;-79
2022/04/13 04:40:24;;;;;;;7.65;3.53;;;;;;;12.24;63.22;99621.84;1088194;54;20041;-80
2022/04/13 04:41:30;;;;;;;7.68;4.07;;;;;;;12.23;63.18;99622.84;1088192;54;20038;-81
2022/04/13 04:42:31;;;;;;;7.20;3.65;;;;;;;12.16;63.27;99619.16;1088246;54;20023;-79
2022/04/13 04:43:41;;;;;;;8.63;3.97;;;;;;;12.13;63.70;99614.09;1088291;54;20035;-79
2022/04/13 04:44:43;;;;;;;8.20;3.97;;;;;;;12.12;63.50;99618.66;1088300;54;20018;-81
2022/04/13 04:45:47;;;;;;;7.53;4.03;;;;;;;12.12;63.42;99620.47;1088163;54;20018;-80
2022/04/13 04:46:48;;;;;;;7.18;4.05;;;;;;;12.09;63.82;99623.50;1088257;54;20043;-79
2022/04/13 04:48:04;;;;;;;7.97;4.20;;;;;;;12.07;63.89;99620.13;1091251;39;20542;-82
2022/04/13 04:49:07;;;;;;;7.03;3.60;;;;;;;12.04;63.70;99617.78;1088253;54;20022;-79
2022/04/13 04:50:12;;;;;;;7.95;3.97;;;;;;;12.01;63.65;99616.28;1091067;39;20586;-81
2022/04/13 04:51:14;;;;;;;8.27;4.07;;;;;;;11.98;64.04;99622.81;1088322;54;20026;-80
2022/04/13 04:52:18;;;;;;;6.22;3.83;;;;;;;12.02;63.73;99617.97;1088085;54;20037;-80
2022/04/13 04:53:23;;;;;;;8.10;4.00;;;;;;;12.03;63.76;99619.63;1088068;54;20030;-80
2022/04/13 04:54:24;;;;;;;6.53;3.85;;;;;;;11.93;64.11;99617.06;1088026;54;20022;-79
2022/04/13 04:55:28;;;;;;;8.70;3.97;;;;;;;11.91;64.14;99621.72;1088008;54;20050;-79
2022/04/13 04:56:33;;;;;;;7.85;3.53;;;;;;;11.90;64.35;99620.09;1088186;54;20042;-80
2022/04/13 04:57:37;;;;;;;7.25;3.63;;;;;;;11.90;64.46;99620.09;1088274;54;20049;-79
2022/04/13 04:58:39;;;;;;;6.85;4.07;;;;;;;11.90;64.28;99624.59;1088437;54;20034;-80
2022/04/13 04:59:43;;;;;;;7.35;3.97;;;;;;;11.83;64.43;99619.03;1090410;46;20599;-80
2022/04/13 05:00:47;;;;;;;6.70;3.92;;;;;;;11.78;64.96;99621.38;1088624;54;20049;-80
2022/04/13 05:01:48;;;;;;;11.48;4.60;;;;;;;11.75;64.85;99624.38;1089009;46;20034;-82
2022/04/13 05:02:54;;;;;;;9.75;4.93;;;;;;;11.78;64.79;99622.19;1088557;54;20022;-80
2022/04/13 05:03:58;;;;;;;9.82;4.55;;;;;;;11.78;65.06;99626.75;1089978;46;20038;-79
2022/04/13 05:05:03;;;;;;;7.65;4.22;;;;;;;11.79;65.04;99617.69;1088300;54;20058;-78
2022/04/13 05:06:04;;;;;;;8.95;3.72;;;;;;;11.73;65.13;99621.00;1089426;46;20027;-77
2022/04/13 05:07:08;;;;;;;8.48;4.15;;;;;;;11.69;65.07;99623.19;1088015;54;20031;-78